Flight Track Log - Related Links

Times and Time Zones

All times are in EDT time to prevent confusion due to time zone crossing. See the HAL107 flight status page for this flight to view local times or setup timezone preferences in your user account.

Time Position Orientation Groundspeed Altitude Reporting Facility
EDT Latitude Longitude Course Direction KTS MPH feet Rate Location/Type
Wed 12:18:31 PM 19.7000 -156.0500 317° Northwest 180 207 1,500  Level Honolulu Center
Wed 12:19:31 PM 19.6833 -156.1167 255° West 230 265 3,100 1,950 Climbing Honolulu Center
Wed 12:20:31 PM 19.7167 -156.1667 305° West 260 299 5,400 2,200 Climbing Honolulu Center
Wed 12:21:00 PM 19.8904 -156.2957 301° West  Level FlightAware Approximate
Wed 12:21:31 PM 19.7833 -156.2333 317° Northwest 270 311 7,500  Level Honolulu Center
Wed 12:22:00 PM 19.9302 -156.3653 301° West  Level FlightAware Approximate
Wed 12:22:31 PM 19.8333 -156.3000 309° West 290 334 9,400  Level Honolulu Center
Wed 12:23:00 PM 19.9667 -156.4333 317° Northwest  Level FlightAware Approximate
Wed 12:23:31 PM 19.9000 -156.3500 325° Northwest 310 357 11,100  Level Honolulu Center
Wed 12:24:32 PM 19.9500 -156.4333 303° West 320 368 12,800 1,983 Climbing Honolulu Center
Wed 12:25:32 PM 20.0167 -156.5000 317° Northwest 340 391 15,100 1,850 Climbing Honolulu Center
Wed 12:26:32 PM 20.0833 -156.5833 310° West 340 391 16,500 1,700 Climbing Honolulu Center
Wed 12:27:32 PM 20.1500 -156.6500 317° Northwest 350 403 18,500 1,500 Climbing Honolulu Center
Wed 12:28:32 PM 20.2167 -156.7333 310° West 370 426 19,500 750 Climbing Honolulu Center
Wed 12:29:32 PM 20.3000 -156.8167 317° Northwest 400 460 20,000 250 Climbing Honolulu Center
Wed 12:30:32 PM 20.3833 -156.9167 312° West 420 483 20,000  Level Honolulu Center
Wed 12:31:32 PM 20.4500 -157.0000 310° West 420 483 20,000  Level Honolulu Center
Wed 12:32:32 PM 20.5333 -157.1000 312° West 420 483 20,000  Level Honolulu Center
Wed 12:33:32 PM 20.6000 -157.1667 317° Northwest 430 495 20,000  Level Honolulu Center
Wed 12:34:32 PM 20.6833 -157.2667 312° West 430 495 20,000 -1,091 Level Honolulu Center
Wed 12:35:33 PM 20.7833 -157.3667 317° Northwest 420 483 17,800 -2,678 Descending Honolulu Center
Wed 12:36:33 PM 20.8500 -157.4667 306° West 400 460 14,600 -3,000 Descending Honolulu Center
Wed 12:37:33 PM 20.9167 -157.5500 311° West 380 437 11,800 -2,150 Descending Honolulu Center
Wed 12:38:33 PM 20.9833 -157.6333 311° West 340 391 10,300 -1,500 Descending Honolulu Center
Wed 12:39:33 PM 21.0333 -157.7000 309° West 300 345 8,800 -1,600 Descending Honolulu Center
Wed 12:40:33 PM 21.1000 -157.7667 317° Northwest 280 322 7,100 -1,650 Descending Honolulu Center
Wed 12:41:33 PM 21.1500 -157.8333 309° West 280 322 5,500 -1,600 Descending Honolulu Center
Wed 12:42:33 PM 21.2000 -157.8833 317° Northwest 260 299 3,900 -1,600 Descending Honolulu Center

Login

Don't have an account? Register now (free) for customized features, flight alerts, and more!